Aérodrome :
LOGIN :

S'inscrire | Disclaimer

   EN    FR    IT 

 










Légende :    VFR   VFR Marginal   IFR   IFR Intensif   IFR Très Intensif
Visi : 
Plafond : 
>= 8 km
>= 3000ft
5 à 8 km
1000 à 3000 ft
1500m à 5 km
500 à 1000 ft
800 à 1500m
200 à 500 ft
< 800m
< 200 ft
Symboles :   Orages  Brouillard  Fortes neiges  Fortes précipitations  Vent > 20 kt
SIGMETs :   Divers  Orages  Givrage  Turbulence  Onde Orograph.  Cendres Volcan.







- Altitude de l'aérodrome : 468 ft
- Code IATA : GRO


LEGE - Girona Costa Brava

DERNIER METAR :
  • 250830Z 06003KT 350V130 CAVOK 21/15 Q1017

METARs EXPIRÉS :
  • 250800Z 00000KT CAVOK 20/13 Q1018
  • 250730Z VRB01KT CAVOK 17/13 Q1018
  • 250700Z VRB01KT CAVOK 16/13 Q1018
  • 250630Z 04004KT 010V090 CAVOK 14/13 Q1018
  • 250600Z 33004KT CAVOK 13/13 Q1017

TAF TAF LEGE
Valide du 25 à 06h jusqu'au 26 à 06h UTC


250500Z 2506/2606 VRB03KT 9999 FEW050 TX28/2514Z TN13/2506Z
BECMG 2509/2511 07006KT
BECMG 2513/2515 13010KT
BECMG 2518/2520 VRB03KT
BECMG 2602/2604 02006KT
Pas de NOTAMs connus pour ce terrain.



MET'MAP, la Météo Aéronautique d'un coup d'oeil ! - Copyright ORBIFLY Décembre 2007 - Disclaimer

ORBIFLY MET'MAP TEAM :

Programmation & Développement : Alexandra Zaïnal
Conception & Développement : Baudouin d'Aumeries
Co-Programmation & Développement : Marc-Olivier Méhu
Soutien technique & logistique : Manuel Goepfert

Contact : metmap@orbifly.com




SOURCES & CREDITS :

   NOAA